Time;durP1;ratioP1;P1;durP2;ratioP2;P2;SDS_P1;SDS_P2;PMS_P1;PMS_P2;Temp;Humidity;BMP_temperature;BMP_pressure;BME280_temperature;BME280_humidity;BME280_pressure;Samples;Min_cycle;Max_cycle;Signal;HPM_P1;HPM_P2
2021/12/22 00:00:53;;;;;;;22.60;11.18;;;;;;;-0.17;70.10;100908.66;5047516;28;20096;-78
2021/12/22 00:03:21;;;;;;;26.40;11.25;;;;;;;-0.17;70.26;100913.88;5077207;28;20040;-77
2021/12/22 00:05:50;;;;;;;21.17;10.25;;;;;;;-0.17;69.99;100914.72;5057086;28;20040;-78
2021/12/22 00:08:17;;;;;;;21.27;10.20;;;;;;;-0.18;70.26;100912.97;5026831;28;20542;-78
2021/12/22 00:10:46;;;;;;;20.20;10.35;;;;;;;-0.19;70.10;100920.88;5057745;28;20048;-77
2021/12/22 00:13:13;;;;;;;23.65;10.20;;;;;;;-0.21;70.22;100915.69;5059661;28;20045;-78
2021/12/22 00:15:39;;;;;;;21.52;10.75;;;;;;;-0.23;70.16;100901.81;5059674;28;20043;-78
2021/12/22 00:18:06;;;;;;;30.52;11.18;;;;;;;-0.23;70.11;100907.91;5056071;28;20098;-79
2021/12/22 00:20:33;;;;;;;20.60;9.88;;;;;;;-0.24;70.41;100907.94;5058842;28;20039;-77
2021/12/22 00:23:00;;;;;;;26.00;9.90;;;;;;;-0.26;70.07;100905.34;5079591;28;20506;-77
2021/12/22 00:25:27;;;;;;;22.77;10.25;;;;;;;-0.25;70.08;100906.25;5080127;28;20043;-77
2021/12/22 00:27:55;;;;;;;22.52;10.50;;;;;;;-0.26;69.93;100907.13;5080860;28;20078;-77
2021/12/22 00:30:24;;;;;;;22.13;10.13;;;;;;;-0.28;69.97;100915.00;5068419;28;20044;-77
2021/12/22 00:32:52;;;;;;;24.88;10.32;;;;;;;-0.29;69.76;100904.59;5064818;28;20779;-78
2021/12/22 00:35:21;;;;;;;29.00;11.35;;;;;;;-0.31;69.96;100917.69;5077338;28;20052;-79
2021/12/22 00:37:47;;;;;;;24.50;10.98;;;;;;;-0.32;69.67;100915.13;5081555;28;20075;-78
2021/12/22 00:40:14;;;;;;;23.00;11.80;;;;;;;-0.35;69.50;100915.22;5077643;28;20510;-78
2021/12/22 00:42:41;;;;;;;24.55;11.52;;;;;;;-0.36;69.66;100916.09;5062518;28;20048;-78
2021/12/22 00:45:08;;;;;;;26.27;11.32;;;;;;;-0.37;69.85;100920.47;5078058;28;20036;-78
2021/12/22 00:47:36;;;;;;;27.25;11.25;;;;;;;-0.38;69.79;100916.16;5044202;28;20040;-77
2021/12/22 00:50:04;;;;;;;23.98;10.38;;;;;;;-0.37;69.74;100914.38;5049271;28;20069;-78
2021/12/22 00:52:31;;;;;;;28.77;11.77;;;;;;;-0.40;69.90;100910.09;5060266;28;20056;-78
2021/12/22 00:54:58;;;;;;;23.73;10.70;;;;;;;-0.40;69.75;100917.94;5056875;28;20043;-77
2021/12/22 00:57:24;;;;;;;23.90;10.77;;;;;;;-0.41;69.61;100912.75;5079514;28;20036;-78
2021/12/22 00:59:51;;;;;;;23.23;10.55;;;;;;;-0.43;69.88;100902.38;5064398;28;20173;-80
2021/12/22 01:02:19;;;;;;;24.10;11.13;;;;;;;-0.42;69.88;100911.03;5076864;28;20048;-78
2021/12/22 01:04:47;;;;;;;33.40;11.32;;;;;;;-0.44;69.95;100898.88;5055284;28;20064;-78
2021/12/22 01:07:14;;;;;;;24.25;10.48;;;;;;;-0.45;69.78;100894.56;5048012;28;20052;-78
2021/12/22 01:09:41;;;;;;;22.15;10.57;;;;;;;-0.45;69.80;100902.38;5075101;28;20115;-78
2021/12/22 01:12:08;;;;;;;21.45;10.88;;;;;;;-0.46;69.63;100891.97;5039471;28;20436;-77
2021/12/22 01:14:36;;;;;;;27.23;10.77;;;;;;;-0.47;70.04;100885.06;5077314;28;20044;-78
2021/12/22 01:17:04;;;;;;;21.42;10.93;;;;;;;-0.50;69.58;100893.81;5076116;28;20048;-78
2021/12/22 01:19:46;;;;;;;23.17;10.60;;;;;;;-0.51;69.57;100893.84;5061760;28;20401;-78
2021/12/22 01:25:04;;;;;;;22.52;9.63;;;;;;;-0.57;69.84;100897.47;5028149;28;20049;-77
2021/12/22 01:27:35;;;;;;;24.52;11.43;;;;;;;-0.57;69.54;100902.69;5051487;28;20067;-78
2021/12/22 01:30:20;;;;;;;20.58;9.40;;;;;;;-0.58;69.45;100902.75;5074175;28;20045;-78
2021/12/22 01:32:50;;;;;;;18.95;9.63;;;;;;;-0.60;69.35;100905.41;5029386;28;20044;-77
2021/12/22 01:35:19;;;;;;;21.50;10.20;;;;;;;-0.59;69.66;100914.06;5036195;28;20060;-78
2021/12/22 01:37:46;;;;;;;22.10;11.05;;;;;;;-0.62;69.62;100925.44;5033470;28;20040;-78
2021/12/22 01:40:14;;;;;;;23.73;10.85;;;;;;;-0.60;69.61;100930.63;5058810;28;20044;-77
2021/12/22 01:42:41;;;;;;;25.50;11.10;;;;;;;-0.60;69.61;100941.06;5036198;28;20048;-78
2021/12/22 01:50:37;;;;;;;24.50;10.73;;;;;;;-0.69;69.48;100948.22;5075647;28;20484;-77
2021/12/22 01:53:35;;;;;;;28.33;11.02;;;;;;;-0.76;69.25;100940.59;5057868;28;20052;-78
2021/12/22 01:56:28;;;;;;;26.55;11.65;;;;;;;-0.75;69.56;100942.28;5058548;28;20052;-78
2021/12/22 01:58:58;;;;;;;22.63;10.85;;;;;;;-0.74;69.69;100941.38;5041777;28;20052;-78
2021/12/22 02:01:27;;;;;;;26.40;11.80;;;;;;;-0.74;69.78;100944.88;5062610;28;20040;-77
2021/12/22 02:03:54;;;;;;;22.02;10.10;;;;;;;-0.74;69.38;100954.41;5056157;28;20055;-77
2021/12/22 02:06:22;;;;;;;25.90;10.90;;;;;;;-0.73;69.60;100961.38;5044830;28;20064;-78
2021/12/22 02:08:53;;;;;;;23.08;10.70;;;;;;;-0.75;69.53;100961.38;5054581;28;20491;-78
2021/12/22 02:11:20;;;;;;;24.17;11.00;;;;;;;-0.76;69.62;100966.66;5052474;28;20087;-78
2021/12/22 02:13:54;;;;;;;23.58;10.32;;;;;;;-0.78;69.68;100964.09;5059375;28;20044;-78
2021/12/22 02:16:27;;;;;;;23.40;11.45;;;;;;;-0.78;69.70;100963.22;5049618;28;20098;-78
2021/12/22 02:18:54;;;;;;;22.17;10.38;;;;;;;-0.78;69.76;100965.84;5070152;28;20440;-77
2021/12/22 02:21:23;;;;;;;23.35;10.65;;;;;;;-0.79;69.59;100965.00;5044233;28;20040;-78
2021/12/22 02:23:52;;;;;;;27.58;10.13;;;;;;;-0.80;69.62;100957.19;5059735;28;20052;-79
2021/12/22 02:26:24;;;;;;;24.85;11.02;;;;;;;-0.79;69.71;100958.88;5045536;28;20127;-78
2021/12/22 02:28:59;;;;;;;27.98;11.88;;;;;;;-0.82;70.00;100962.44;5071444;28;20052;-79
2021/12/22 02:31:26;;;;;;;24.13;11.45;;;;;;;-0.82;69.39;100966.78;5057752;28;20048;-78
2021/12/22 02:33:53;;;;;;;26.42;11.20;;;;;;;-0.84;69.46;100964.25;5026413;28;20048;-78
2021/12/22 02:36:27;;;;;;;25.55;10.52;;;;;;;-0.86;69.18;100954.72;5062618;28;20051;-78
2021/12/22 02:38:56;;;;;;;28.70;11.65;;;;;;;-0.88;69.41;100955.59;5045063;28;20041;-77
2021/12/22 02:41:29;;;;;;;22.98;10.38;;;;;;;-0.90;69.44;100956.53;5071338;28;20087;-78
2021/12/22 02:43:58;;;;;;;21.50;11.45;;;;;;;-0.90;69.45;100959.16;5058895;28;20045;-78
2021/12/22 02:46:34;;;;;;;25.00;9.85;;;;;;;-0.93;69.21;100959.22;5058468;28;20064;-79
2021/12/22 02:49:06;;;;;;;22.88;11.27;;;;;;;-0.94;69.08;100960.97;5045299;28;21773;-78
2021/12/22 02:51:34;;;;;;;25.10;9.80;;;;;;;-0.95;69.41;100966.22;5057601;28;20119;-77
2021/12/22 02:56:39;;;;;;;23.33;11.38;;;;;;;-0.97;69.57;100968.84;5056472;28;20127;-78
2021/12/22 03:02:05;;;;;;;22.88;11.27;;;;;;;-1.00;69.40;100963.72;5058861;28;20041;-77
2021/12/22 03:04:42;;;;;;;26.05;11.98;;;;;;;-1.00;69.49;100965.47;5056885;28;20036;-78
2021/12/22 03:07:15;;;;;;;25.70;11.13;;;;;;;-1.00;69.61;100968.06;5022441;28;20499;-78
2021/12/22 03:09:43;;;;;;;22.90;11.45;;;;;;;-1.01;69.72;100967.22;5058338;28;20508;-77
2021/12/22 03:12:12;;;;;;;24.05;11.73;;;;;;;-1.02;69.54;100969.84;5052630;28;20135;-77
2021/12/22 03:14:39;;;;;;;28.80;12.05;;;;;;;-1.02;69.72;100973.31;5051073;28;20048;-78
2021/12/22 03:17:06;;;;;;;26.38;10.73;;;;;;;-1.03;69.66;100978.56;5058244;28;20044;-77
2021/12/22 03:19:34;;;;;;;27.27;12.30;;;;;;;-1.04;69.53;100979.44;5056904;28;20487;-77
2021/12/22 03:22:04;;;;;;;28.42;12.07;;;;;;;-1.05;69.69;100977.75;5056579;28;20522;-77
2021/12/22 03:24:34;;;;;;;29.05;12.88;;;;;;;-1.06;69.55;100978.66;5059814;28;20045;-78
2021/12/22 03:27:03;;;;;;;34.42;12.30;;;;;;;-1.07;69.35;100969.94;5056623;28;20492;-78
2021/12/22 03:29:32;;;;;;;31.25;12.60;;;;;;;-1.09;69.22;100963.94;5076283;28;20060;-78
2021/12/22 03:31:59;;;;;;;27.85;12.05;;;;;;;-1.10;69.56;100967.41;5070863;28;20060;-79
2021/12/22 03:34:26;;;;;;;32.63;13.98;;;;;;;-1.14;69.41;100953.59;5042823;28;20508;-78
2021/12/22 03:36:52;;;;;;;35.20;13.55;;;;;;;-1.14;69.09;100952.75;5043861;28;20044;-77
2021/12/22 03:39:20;;;;;;;32.72;12.80;;;;;;;-1.16;69.29;100950.16;5050383;28;20152;-78
2021/12/22 03:41:48;;;;;;;36.65;13.90;;;;;;;-1.17;69.47;100945.84;5035120;28;20539;-78
2021/12/22 03:44:14;;;;;;;30.95;12.77;;;;;;;-1.18;69.60;100943.28;5080875;28;20064;-78
2021/12/22 03:46:41;;;;;;;30.67;12.88;;;;;;;-1.18;69.48;100944.13;5051870;28;20044;-79
2021/12/22 03:49:10;;;;;;;32.25;13.52;;;;;;;-1.18;69.32;100940.66;5080347;28;20437;-78
2021/12/22 03:51:36;;;;;;;28.02;13.10;;;;;;;-1.17;69.59;100943.25;5059774;28;20054;-78
2021/12/22 03:54:07;;;;;;;34.80;14.95;;;;;;;-1.20;69.56;100951.13;5081057;28;20051;-78
2021/12/22 03:56:35;;;;;;;32.50;14.18;;;;;;;-1.19;69.36;100944.19;5075218;28;21099;-78
2021/12/22 03:59:03;;;;;;;28.40;13.60;;;;;;;-1.21;69.61;100946.81;5065208;28;20501;-78
2021/12/22 04:01:30;;;;;;;35.10;14.38;;;;;;;-1.23;69.56;100945.97;5067199;28;20491;-78
2021/12/22 04:04:01;;;;;;;33.58;14.77;;;;;;;-1.22;69.27;100957.25;5068644;28;20117;-78
2021/12/22 04:06:29;;;;;;;32.30;13.38;;;;;;;-1.26;69.67;100953.88;5080482;28;20154;-80
2021/12/22 04:08:55;;;;;;;30.52;13.23;;;;;;;-1.26;69.47;100945.19;5049986;28;20040;-78
2021/12/22 04:11:22;;;;;;;33.80;12.73;;;;;;;-1.28;69.29;100947.81;5075301;28;20491;-78
2021/12/22 04:13:49;;;;;;;29.35;11.82;;;;;;;-1.28;69.36;100945.22;5052700;28;20040;-78
2021/12/22 04:16:16;;;;;;;29.75;12.27;;;;;;;-1.28;69.24;100939.16;5065030;28;20632;-78
2021/12/22 04:18:42;;;;;;;29.95;13.38;;;;;;;-1.31;69.54;100945.28;5064539;28;20071;-78
2021/12/22 04:21:09;;;;;;;29.90;12.25;;;;;;;-1.29;69.39;100945.28;5063266;28;20044;-78
2021/12/22 04:23:36;;;;;;;27.90;12.43;;;;;;;-1.32;69.42;100938.38;5066437;28;20063;-78
2021/12/22 04:26:03;;;;;;;25.90;12.02;;;;;;;-1.33;69.59;100942.72;5080104;28;20048;-77
2021/12/22 04:28:30;;;;;;;29.63;12.90;;;;;;;-1.33;69.29;100940.09;5062354;28;20046;-78
2021/12/22 04:30:57;;;;;;;25.27;11.35;;;;;;;-1.33;69.70;100947.91;5083417;28;20233;-78
2021/12/22 04:33:24;;;;;;;29.65;11.88;;;;;;;-1.34;69.64;100937.56;5051403;28;20047;-78
2021/12/22 04:35:51;;;;;;;32.30;12.75;;;;;;;-1.34;69.57;100941.00;5045299;28;20120;-78
2021/12/22 04:38:19;;;;;;;30.75;15.57;;;;;;;-1.36;69.17;100936.72;5069084;28;20048;-78
2021/12/22 04:40:46;;;;;;;44.55;25.30;;;;;;;-1.38;69.31;100939.34;5065584;28;20058;-77
2021/12/22 04:43:12;;;;;;;47.53;26.00;;;;;;;-1.39;69.29;100939.41;5045908;28;20135;-78
2021/12/22 04:45:39;;;;;;;46.00;24.95;;;;;;;-1.39;69.34;100940.25;5074434;28;20066;-78
2021/12/22 04:48:06;;;;;;;37.70;21.55;;;;;;;-1.41;69.48;100942.03;5071747;28;20051;-78
2021/12/22 04:50:33;;;;;;;38.35;20.73;;;;;;;-1.40;69.68;100940.28;5049558;28;20060;-77
2021/12/22 04:53:07;;;;;;;36.92;20.05;;;;;;;-1.42;69.64;100939.47;5047146;28;20040;-78
2021/12/22 04:55:34;;;;;;;43.55;24.48;;;;;;;-1.43;69.35;100938.59;5078744;28;20521;-78
2021/12/22 04:58:01;;;;;;;46.42;28.23;;;;;;;-1.44;69.24;100941.25;5077203;28;20040;-78
2021/12/22 05:00:31;;;;;;;41.28;22.75;;;;;;;-1.46;69.28;100943.88;5064442;28;20047;-78
2021/12/22 05:02:58;;;;;;;31.92;18.48;;;;;;;-1.47;69.65;100942.16;5062237;28;20502;-78
2021/12/22 05:05:25;;;;;;;29.90;16.45;;;;;;;-1.47;69.44;100949.97;5068622;28;20521;-77
2021/12/22 05:07:53;;;;;;;36.50;15.48;;;;;;;-1.49;69.30;100946.53;5046132;28;20040;-78
2021/12/22 05:10:21;;;;;;;35.55;15.43;;;;;;;-1.51;69.07;100948.31;5062816;28;20044;-78
2021/12/22 05:12:52;;;;;;;36.65;17.00;;;;;;;-1.54;69.17;100953.59;5057090;28;20051;-78
2021/12/22 05:15:21;;;;;;;34.40;17.27;;;;;;;-1.54;69.04;100953.59;5082192;28;20044;-78
2021/12/22 05:18:13;;;;;;;30.95;16.73;;;;;;;-1.56;68.89;100952.75;5068197;28;20044;-78
2021/12/22 05:20:36;;;;;;;36.95;17.02;;;;;;;-1.59;68.94;100955.44;5053793;28;20438;-77
2021/12/22 05:23:03;;;;;;;33.97;17.55;;;;;;;-1.59;68.91;100952.84;5045140;28;20044;-78
2021/12/22 05:25:30;;;;;;;32.10;15.82;;;;;;;-1.60;68.98;100951.13;5068181;28;20056;-78
2021/12/22 05:27:57;;;;;;;32.75;14.98;;;;;;;-1.63;68.78;100957.25;5052048;28;20041;-78
2021/12/22 05:30:23;;;;;;;29.58;14.18;;;;;;;-1.64;68.77;100952.06;5061322;28;20145;-77
2021/12/22 05:32:54;;;;;;;30.13;14.15;;;;;;;-1.67;68.78;100952.13;5053202;28;20049;-78
2021/12/22 05:35:21;;;;;;;32.78;13.55;;;;;;;-1.66;68.81;100954.69;5077787;28;20044;-78
2021/12/22 05:37:48;;;;;;;30.02;14.38;;;;;;;-1.68;68.86;100951.28;5069064;28;20056;-78
2021/12/22 05:40:14;;;;;;;26.73;12.35;;;;;;;-1.69;68.64;100952.16;5076116;28;20052;-78
2021/12/22 05:42:42;;;;;;;47.28;13.43;;;;;;;-1.71;68.53;100948.72;5070118;28;20503;-78
2021/12/22 05:45:09;;;;;;;38.17;13.82;;;;;;;-1.70;68.98;100955.66;5074824;28;20044;-78
2021/12/22 05:47:35;;;;;;;40.70;12.43;;;;;;;-1.71;68.80;100955.69;5082681;28;20127;-78
2021/12/22 05:50:06;;;;;;;33.45;13.07;;;;;;;-1.71;68.89;100947.88;5081449;28;20036;-78
2021/12/22 05:52:33;;;;;;;39.22;13.98;;;;;;;-1.73;69.02;100940.09;5063982;28;20584;-78
2021/12/22 05:54:59;;;;;;;35.10;13.85;;;;;;;-1.73;68.89;100947.03;5063704;28;20048;-78
2021/12/22 05:57:27;;;;;;;29.85;13.32;;;;;;;-1.72;69.13;100943.56;5043416;28;20036;-80
2021/12/22 05:59:54;;;;;;;37.40;13.68;;;;;;;-1.73;69.17;100940.09;5058096;28;20066;-80
2021/12/22 06:02:21;;;;;;;31.63;13.43;;;;;;;-1.74;69.26;100933.16;5050253;28;20487;-80
2021/12/22 06:04:48;;;;;;;32.60;12.95;;;;;;;-1.76;69.25;100934.94;5077651;28;20055;-83
2021/12/22 06:07:15;;;;;;;32.70;13.32;;;;;;;-1.77;68.88;100934.09;5064631;28;20048;-81
2021/12/22 06:09:42;;;;;;;31.23;13.07;;;;;;;-1.78;69.12;100932.38;5075015;28;20060;-81
2021/12/22 06:12:08;;;;;;;36.00;13.95;;;;;;;-1.79;69.08;100928.03;5075999;28;20423;-81
2021/12/22 06:14:35;;;;;;;31.27;13.77;;;;;;;-1.80;69.42;100928.09;5049586;28;20047;-81
2021/12/22 06:17:02;;;;;;;30.50;12.70;;;;;;;-1.81;69.23;100932.41;5080353;28;20051;-81
2021/12/22 06:19:29;;;;;;;31.02;12.82;;;;;;;-1.82;69.16;100938.53;5077707;28;20049;-81
2021/12/22 06:21:56;;;;;;;29.48;12.88;;;;;;;-1.83;69.21;100933.34;5079153;28;21090;-81
2021/12/22 06:24:22;;;;;;;34.33;14.20;;;;;;;-1.83;69.02;100938.53;5050094;28;20044;-81
2021/12/22 06:26:49;;;;;;;34.28;13.63;;;;;;;-1.85;68.84;100941.19;5074174;28;20044;-81
2021/12/22 06:29:15;;;;;;;31.10;13.90;;;;;;;-1.87;68.88;100948.16;5061038;28;20491;-81
2021/12/22 06:31:42;;;;;;;39.28;13.43;;;;;;;-1.89;68.76;100952.53;5038501;28;20651;-81
2021/12/22 06:34:12;;;;;;;35.90;14.50;;;;;;;-1.90;68.80;100955.19;5080745;28;21593;-83
2021/12/22 06:36:40;;;;;;;28.90;12.77;;;;;;;-1.90;68.98;100956.03;5056988;28;20044;-81
2021/12/22 06:39:07;;;;;;;33.20;13.98;;;;;;;-1.93;69.04;100958.72;5062157;28;20048;-79
2021/12/22 06:41:34;;;;;;;33.13;14.63;;;;;;;-1.93;69.14;100969.13;5077535;28;20494;-81
2021/12/22 06:44:01;;;;;;;39.65;14.00;;;;;;;-1.94;68.80;100963.94;5049309;28;20053;-79
2021/12/22 06:46:28;;;;;;;37.35;14.35;;;;;;;-1.96;68.71;100971.75;5063629;28;20625;-79
2021/12/22 06:48:55;;;;;;;32.35;13.95;;;;;;;-1.98;69.03;100966.59;5059829;28;20061;-80
2021/12/22 06:51:21;;;;;;;35.53;13.57;;;;;;;-2.00;68.94;100967.53;5073876;28;20077;-79
2021/12/22 06:53:48;;;;;;;38.88;14.25;;;;;;;-1.99;69.20;100971.81;5062162;28;20050;-79
2021/12/22 06:56:15;;;;;;;38.05;14.40;;;;;;;-1.99;69.14;100974.44;5059639;28;20044;-79
2021/12/22 06:58:42;;;;;;;39.08;14.57;;;;;;;-2.00;69.21;100984.00;5077870;28;20051;-79
2021/12/22 07:01:09;;;;;;;41.10;16.23;;;;;;;-2.01;69.25;100989.22;5080188;28;20044;-80
2021/12/22 07:03:36;;;;;;;37.47;14.02;;;;;;;-2.03;69.27;100988.41;5061130;28;20048;-79
2021/12/22 07:06:03;;;;;;;34.17;14.60;;;;;;;-2.04;69.04;100984.06;5039136;28;20071;-79
2021/12/22 07:08:30;;;;;;;37.97;15.45;;;;;;;-2.04;69.27;100987.53;5076593;28;20036;-79
2021/12/22 07:10:57;;;;;;;53.45;17.52;;;;;;;-2.05;68.79;100990.16;5078420;28;20056;-80
2021/12/22 07:13:24;;;;;;;46.55;19.00;;;;;;;-2.08;68.79;100990.22;5050924;28;20630;-81
2021/12/22 07:15:51;;;;;;;49.38;18.25;;;;;;;-2.11;68.84;100991.16;5011117;28;20044;-80
2021/12/22 07:18:18;;;;;;;48.53;18.67;;;;;;;-2.10;69.19;100992.84;5047229;28;20045;-80
2021/12/22 07:20:45;;;;;;;49.67;19.13;;;;;;;-2.09;68.97;101001.50;5065101;28;20051;-80
2021/12/22 07:23:13;;;;;;;50.92;18.60;;;;;;;-2.10;69.21;101007.59;5060407;28;20049;-80
2021/12/22 07:25:40;;;;;;;42.95;17.27;;;;;;;-2.12;69.31;100997.22;5060406;28;20060;-78
2021/12/22 07:28:10;;;;;;;42.65;18.80;;;;;;;-2.12;69.32;100994.63;5077547;28;20040;-80
2021/12/22 07:30:37;;;;;;;44.92;17.92;;;;;;;-2.12;69.12;100992.00;5061876;28;20067;-78
2021/12/22 07:33:05;;;;;;;44.78;17.63;;;;;;;-2.12;69.08;101001.56;5067031;28;20094;-79
2021/12/22 07:35:47;;;;;;;40.88;16.92;;;;;;;-2.15;69.17;101010.28;5084751;28;20048;-78
2021/12/22 07:38:30;;;;;;;45.63;16.65;;;;;;;-2.13;69.59;101011.13;5050795;28;20053;-79
2021/12/22 07:41:01;;;;;;;43.05;18.02;;;;;;;-2.14;69.58;101014.59;5045735;28;20483;-79
2021/12/22 07:43:28;;;;;;;44.72;16.27;;;;;;;-2.15;69.35;101007.69;5062273;28;20412;-78
2021/12/22 07:45:55;;;;;;;38.00;15.52;;;;;;;-2.15;69.19;101001.63;5063806;28;20539;-78
2021/12/22 07:48:23;;;;;;;43.97;16.13;;;;;;;-2.16;69.45;101003.38;5063477;28;20181;-81
2021/12/22 07:50:55;;;;;;;48.38;15.82;;;;;;;-2.18;69.28;100999.94;5048762;28;20079;-79
2021/12/22 07:53:22;;;;;;;41.92;16.75;;;;;;;-2.17;69.88;100991.22;5069662;28;20092;-78
2021/12/22 07:55:53;;;;;;;45.30;16.55;;;;;;;-2.00;72.38;100990.94;5089220;28;20047;-78
2021/12/22 07:58:24;;;;;;;51.17;17.40;;;;;;;-2.03;70.57;101001.41;5051592;28;20565;-79
2021/12/22 08:00:51;;;;;;;44.78;17.10;;;;;;;-2.06;69.98;101004.03;5064057;28;20498;-80
2021/12/22 08:03:18;;;;;;;56.25;21.17;;;;;;;-2.08;69.54;101000.63;5078507;28;20384;-79
2021/12/22 08:06:05;;;;;;;64.72;22.75;;;;;;;-2.12;69.74;100994.63;5031328;28;20108;-80
2021/12/22 08:08:32;;;;;;;61.30;21.00;;;;;;;-2.12;69.67;100992.00;5062834;28;20056;-80
2021/12/22 08:10:58;;;;;;;54.63;21.08;;;;;;;-2.12;69.61;100993.75;5065648;28;20040;-79
2021/12/22 08:13:25;;;;;;;47.92;19.05;;;;;;;-2.15;69.64;100989.47;5034123;28;20048;-80
2021/12/22 08:15:53;;;;;;;55.42;20.77;;;;;;;-2.14;69.96;100987.72;5074674;28;20043;-78
2021/12/22 08:18:20;;;;;;;62.85;21.00;;;;;;;-2.14;69.86;100991.16;5080744;28;20040;-79
2021/12/22 08:20:47;;;;;;;55.95;20.77;;;;;;;-2.13;69.94;100990.31;5067627;28;20701;-79
2021/12/22 08:23:16;;;;;;;52.40;21.52;;;;;;;-2.14;69.92;100996.38;5063627;28;20377;-79
2021/12/22 08:25:42;;;;;;;51.42;21.00;;;;;;;-2.15;70.31;100992.06;5049376;28;20052;-79
2021/12/22 08:28:09;;;;;;;52.42;20.15;;;;;;;-2.13;70.14;100995.50;5077929;28;20056;-80
2021/12/22 08:30:37;;;;;;;49.22;20.70;;;;;;;-2.12;70.23;100997.22;5082653;28;20050;-79
2021/12/22 08:33:09;;;;;;;47.88;20.35;;;;;;;-2.12;70.32;101005.03;5067042;28;20059;-79
2021/12/22 08:38:50;;;;;;;53.97;21.35;;;;;;;-2.12;70.16;100997.22;5057766;28;20361;-79
2021/12/22 08:41:10;;;;;;;49.25;18.42;;;;;;;-2.13;70.37;100989.44;5033875;28;20044;-81
2021/12/22 08:43:37;;;;;;;45.63;18.63;;;;;;;-2.11;70.02;100985.06;5052879;28;20106;-78
2021/12/22 08:46:05;;;;;;;49.40;18.42;;;;;;;-2.12;70.32;100985.94;5067386;28;20041;-79
2021/12/22 08:48:32;;;;;;;58.70;21.75;;;;;;;-2.11;70.02;100985.06;5062007;28;20128;-79
2021/12/22 08:50:59;;;;;;;54.40;21.65;;;;;;;-2.09;70.23;100993.69;5059129;28;20052;-79
2021/12/22 08:53:25;;;;;;;60.30;21.65;;;;;;;-2.11;70.17;100992.88;5078374;28;20060;-78
2021/12/22 08:55:52;;;;;;;53.72;19.60;;;;;;;-2.11;70.31;100983.34;5077728;28;20043;-80
2021/12/22 08:58:19;;;;;;;49.65;20.00;;;;;;;-2.09;70.39;100991.09;5044831;28;20051;-79
2021/12/22 09:00:45;;;;;;;53.90;20.95;;;;;;;-2.10;70.54;100985.03;5047282;28;20399;-79
2021/12/22 09:03:12;;;;;;;55.40;20.98;;;;;;;-2.08;70.47;100987.63;5060524;28;20056;-81
2021/12/22 09:05:39;;;;;;;55.83;21.15;;;;;;;-2.09;70.49;100986.75;5079065;28;20072;-79
2021/12/22 09:08:06;;;;;;;52.78;21.30;;;;;;;-2.07;70.44;100982.38;5077336;28;20043;-79
2021/12/22 09:10:33;;;;;;;54.17;21.17;;;;;;;-2.06;70.62;100980.63;5060749;28;20442;-80
2021/12/22 09:12:59;;;;;;;55.92;21.65;;;;;;;-2.05;70.83;100978.00;5059870;28;20055;-79
2021/12/22 09:15:26;;;;;;;65.78;22.80;;;;;;;-2.03;70.88;100980.59;5057944;28;20040;-79
2021/12/22 09:17:52;;;;;;;61.10;21.75;;;;;;;-2.02;70.67;100979.69;5062458;28;20094;-79
2021/12/22 09:20:19;;;;;;;48.22;21.10;;;;;;;-2.01;70.88;100976.19;5059540;28;20647;-79
2021/12/22 09:22:46;;;;;;;59.42;21.80;;;;;;;-2.00;70.86;100981.38;5065795;28;20515;-78
2021/12/22 09:25:13;;;;;;;56.60;21.60;;;;;;;-1.98;70.76;100986.56;5064524;28;20725;-79
2021/12/22 09:27:40;;;;;;;54.15;22.58;;;;;;;-1.98;71.10;100979.63;5081468;28;20066;-79
2021/12/22 09:30:08;;;;;;;54.28;21.00;;;;;;;-1.92;70.83;100986.44;5042567;28;1088729;-79
2021/12/22 09:32:35;;;;;;;57.92;21.08;;;;;;;-1.94;71.49;100979.56;5052958;28;20040;-77
2021/12/22 09:35:01;;;;;;;56.72;22.75;;;;;;;-1.93;71.11;100979.53;5087031;28;20040;-77
2021/12/22 09:37:28;;;;;;;56.67;21.33;;;;;;;-1.91;71.40;100976.88;5050032;28;20044;-76
2021/12/22 09:39:54;;;;;;;45.38;18.80;;;;;;;-1.91;71.46;100967.31;5065918;28;20048;-77
2021/12/22 09:42:21;;;;;;;48.35;16.88;;;;;;;-1.89;71.86;100964.72;5062737;28;20102;-79
2021/12/22 09:44:51;;;;;;;48.83;20.33;;;;;;;-1.85;71.69;100966.38;5044461;28;20052;-80
2021/12/22 09:47:27;;;;;;;53.97;19.33;;;;;;;-1.84;71.80;100957.66;5060688;28;20169;-79
2021/12/22 09:50:24;;;;;;;55.25;21.70;;;;;;;-1.82;71.81;100958.50;5031410;28;20055;-80
2021/12/22 09:52:41;;;;;;;57.38;21.35;;;;;;;-1.81;72.10;100949.78;5026207;28;20047;-79
2021/12/22 09:55:08;;;;;;;54.67;21.90;;;;;;;-1.77;72.08;100944.50;5074599;28;21631;-80
2021/12/22 09:57:35;;;;;;;59.33;23.33;;;;;;;-1.75;72.04;100939.28;5073903;28;20052;-80
2021/12/22 10:00:04;;;;;;;56.80;22.45;;;;;;;-1.74;72.23;100930.56;5057126;28;20110;-79
2021/12/22 10:02:39;;;;;;;55.33;21.77;;;;;;;-1.72;72.21;100928.78;5056165;28;20052;-80
2021/12/22 10:05:08;;;;;;;57.83;23.50;;;;;;;-1.74;72.50;100927.97;5059389;28;20119;-79
2021/12/22 10:07:38;;;;;;;49.45;21.55;;;;;;;-1.76;72.63;100922.75;5062548;28;20051;-79
2021/12/22 10:10:08;;;;;;;63.40;23.58;;;;;;;-1.72;72.40;100918.38;5067184;28;20044;-78
2021/12/22 10:12:35;;;;;;;59.88;23.27;;;;;;;-1.70;72.63;100913.16;5059980;28;20404;-79
2021/12/22 10:15:05;;;;;;;46.60;21.40;;;;;;;-1.69;72.44;100920.91;5086761;28;20045;-79
2021/12/22 10:17:44;;;;;;;57.72;22.67;;;;;;;-1.66;72.65;100920.00;5063692;28;20354;-79
2021/12/22 10:20:17;;;;;;;55.13;22.85;;;;;;;-1.66;72.71;100914.78;5053652;28;20495;-79
2021/12/22 10:22:46;;;;;;;57.63;23.27;;;;;;;-1.64;72.82;100915.59;5066294;28;20143;-80
2021/12/22 10:25:17;;;;;;;53.38;21.75;;;;;;;-1.65;72.55;100906.94;5070485;28;20059;-79
2021/12/22 10:27:56;;;;;;;53.92;22.80;;;;;;;-1.65;72.79;100899.13;5068004;28;20043;-79
2021/12/22 10:30:24;;;;;;;53.08;23.27;;;;;;;-1.65;73.18;100896.53;5058726;28;20044;-79
2021/12/22 10:33:04;;;;;;;50.38;21.52;;;;;;;-1.65;73.35;100896.53;5071168;28;20105;-80
2021/12/22 10:35:33;;;;;;;55.13;21.15;;;;;;;-1.59;73.30;100899.00;5070155;28;20036;-78
2021/12/22 10:38:01;;;;;;;54.15;21.33;;;;;;;-1.58;73.10;100892.03;5067552;28;20051;-78
2021/12/22 10:40:31;;;;;;;57.33;22.20;;;;;;;-1.55;73.17;100894.59;5063078;28;20052;-79
2021/12/22 10:42:58;;;;;;;51.10;21.63;;;;;;;-1.52;73.24;100889.31;5045483;28;20094;-79
2021/12/22 10:45:28;;;;;;;56.47;22.65;;;;;;;-1.52;73.55;100885.84;5046551;28;20045;-78
2021/12/22 10:50:57;;;;;;;46.75;19.90;;;;;;;-1.51;73.87;100884.94;5030295;28;20044;-80
2021/12/22 10:53:25;;;;;;;57.28;20.88;;;;;;;-1.47;73.76;100887.47;5063937;28;20051;-79
2021/12/22 10:55:57;;;;;;;51.67;20.00;;;;;;;-1.44;73.71;100887.38;5057809;28;20036;-78
2021/12/22 10:58:26;;;;;;;51.15;20.70;;;;;;;-1.42;73.92;100876.94;5063440;28;20399;-78
2021/12/22 11:01:03;;;;;;;56.95;21.58;;;;;;;-1.42;73.74;100872.59;5078869;28;20043;-78
2021/12/22 11:03:38;;;;;;;45.38;19.20;;;;;;;-1.36;73.90;100882.84;5046050;28;20085;-78
2021/12/22 11:06:20;;;;;;;53.78;21.90;;;;;;;-1.36;73.98;100879.41;5048155;28;20055;-78
2021/12/22 11:09:10;;;;;;;43.00;19.63;;;;;;;-1.34;74.38;100875.03;5059343;28;20090;-78
2021/12/22 11:11:39;;;;;;;30.17;13.55;;;;;;;-1.00;84.22;100867.25;5024749;28;20044;-79
2021/12/22 11:14:10;;;;;;;46.58;20.67;;;;;;;-1.06;76.18;100869.16;5072186;28;20387;-77
2021/12/22 11:16:51;;;;;;;51.40;22.77;;;;;;;-1.08;75.23;100856.16;5070995;28;20044;-79
2021/12/22 11:19:20;;;;;;;48.08;20.00;;;;;;;-1.05;74.71;100857.84;5011167;28;20055;-80
2021/12/22 11:22:04;;;;;;;49.00;18.80;;;;;;;-1.04;74.59;100843.91;5076040;28;20037;-80
2021/12/22 11:24:33;;;;;;;51.03;20.35;;;;;;;-0.96;76.46;100839.38;5054091;28;20400;-80
2021/12/22 11:27:02;;;;;;;52.38;20.48;;;;;;;-0.95;75.26;100841.06;5074349;28;20611;-79
2021/12/22 11:29:28;;;;;;;45.97;20.15;;;;;;;-0.96;75.00;100836.78;5059797;28;20733;-80
2021/12/22 11:31:55;;;;;;;43.33;18.90;;;;;;;-0.96;75.22;100831.56;5059254;28;20381;-79
2021/12/22 11:34:22;;;;;;;52.38;21.40;;;;;;;-0.89;76.05;100823.53;5045905;28;20048;-79
2021/12/22 11:36:50;;;;;;;40.33;18.35;;;;;;;-0.87;75.30;100826.09;5078676;28;20044;-79